| time (UTC) | temp F | wind direction | speed knots | gust knots | rain 1hr in | rain 24hr in | rain mn in | humidity % | barometer mb |
| 20260508180150 | 58 | 294 | 5.2 | 13.9 | 0.00 | 0.00 | 0.00 | 45 | 1011.1 |
| 20260508170150 | 59 | 291 | 6.1 | 13.9 | 0.00 | 0.00 | 0.00 | 41 | 1010.8 |
| 20260508160150 | 60 | 289 | 3.5 | 10.4 | 0.00 | 0.00 | 0.00 | 40 | 1011.2 |
| 20260508150226 | 58 | 293 | 1.7 | 7.0 | 0.00 | 0.00 | 0.00 | 47 | 1011.5 |
| 20260508150150 | 58 | 293 | 1.7 | 7.0 | 0.00 | 0.00 | 0.00 | 47 | 1011.5 |
| 20260508140150 | 57 | 219 | 0.9 | 3.5 | 0.00 | 0.00 | 0.00 | 50 | 1011.9 |
| 20260508130150 | 54 | 280 | 3.5 | 8.7 | 0.00 | 0.00 | 0.00 | 55 | 1012.4 |
| 20260508110151 | 49 | 276 | 0.9 | 3.5 | 0.00 | 0.00 | 0.00 | 65 | 1012.2 |
| 20260508100151 | 49 | 0 | 0.0 | 0.0 | 0.00 | 0.00 | 0.00 | 61 | 1011.4 |
| 20260508090150 | 50 | 290 | 2.6 | 7.0 | 0.00 | 0.03 | 0.00 | 56 | 1011.3 |
| 20260508080150 | 49 | 300 | 0.9 | 6.1 | 0.00 | 0.07 | 0.00 | 57 | 1011.0 |
| 20260508073149 | 49 | 292 | 0.9 | 4.3 | 0.00 | 0.09 | 0.00 | 61 | 1010.9 |
| 20260508070151 | 47 | 295 | 1.7 | 5.2 | 0.00 | 0.14 | 0.00 | 72 | 1011.0 |
| 20260508063149 | 46 | 299 | 1.7 | 3.5 | 0.00 | 0.18 | 0.00 | 77 | 1010.2 |
| 20260508060149 | 45 | 0 | 0.0 | 0.0 | 0.00 | 0.20 | 0.00 | 84 | 1009.7 |
| 20260508053149 | 45 | 0 | 0.0 | 0.0 | 0.00 | 0.20 | 0.00 | 85 | 1009.8 |
| 20260508050150 | 45 | 0 | 0.0 | 0.0 | 0.00 | 0.20 | 0.00 | 83 | 1009.8 |
| 20260508043149 | 45 | 0 | 0.0 | 0.0 | 0.00 | 0.20 | 0.00 | 82 | 1010.0 |
| 20260508040149 | 46 | 0 | 0.0 | 0.0 | 0.00 | 0.20 | 0.00 | 81 | 1010.2 |
| 20260508033149 | 47 | 0 | 0.0 | 0.0 | 0.00 | 0.20 | 0.20 | 77 | 1010.2 |
| 20260508030222 | 47 | 0 | 0.0 | 0.0 | 0.00 | 0.20 | 0.20 | 74 | 1010.2 |
| 20260508030149 | 47 | 0 | 0.0 | 0.0 | 0.00 | 0.20 | 0.20 | 74 | 1010.2 |
| 20260508020149 | 50 | 0 | 0.0 | 0.0 | 0.00 | 0.20 | 0.20 | 63 | 1010.1 |
| 20260508013149 | 53 | 0 | 0.0 | 0.0 | 0.00 | 0.20 | 0.20 | 57 | 1009.7 |
| 20260508010150 | 54 | 0 | 0.0 | 0.0 | 0.00 | 0.20 | 0.20 | 54 | 1009.7 |
| 20260508003149 | 56 | 0 | 0.0 | 0.0 | 0.00 | 0.20 | 0.20 | 48 | 1008.9 |
| 20260507230151 | 60 | 313 | 0.9 | 7.8 | 0.00 | 0.20 | 0.20 | 41 | 1008.1 |
| 20260507220150 | 63 | 304 | 1.7 | 6.1 | 0.00 | 0.20 | 0.20 | 39 | 1008.0 |
| 20260507210150 | 63 | 21 | 2.6 | 7.8 | 0.00 | 0.20 | 0.20 | 38 | 1007.6 |
| 20260507200150 | 62 | 16 | 3.5 | 8.7 | 0.00 | 0.21 | 0.20 | 38 | 1007.8 |
| 20260507190150 | 63 | 21 | 3.5 | 7.8 | 0.00 | 0.21 | 0.20 | 37 | 1008.3 |